sensor_id;sensor_type;location;lat;lon;timestamp;temperature;humidity
47779;DHT22;33538;48.432;11.350;2024-03-02T00:00:17;6.60;99.90
47779;DHT22;33538;48.432;11.350;2024-03-02T00:02:44;6.60;99.90
47779;DHT22;33538;48.432;11.350;2024-03-02T00:05:14;6.60;99.90
47779;DHT22;33538;48.432;11.350;2024-03-02T00:07:42;6.60;99.90
47779;DHT22;33538;48.432;11.350;2024-03-02T00:10:10;6.60;99.90
47779;DHT22;33538;48.432;11.350;2024-03-02T00:12:38;6.60;99.90
47779;DHT22;33538;48.432;11.350;2024-03-02T00:15:19;6.60;99.90
47779;DHT22;33538;48.432;11.350;2024-03-02T00:17:53;6.60;99.90
47779;DHT22;33538;48.432;11.350;2024-03-02T00:20:22;6.60;99.90
47779;DHT22;33538;48.432;11.350;2024-03-02T00:22:50;6.60;99.90
47779;DHT22;33538;48.432;11.350;2024-03-02T00:25:17;6.60;99.90
47779;DHT22;33538;48.432;11.350;2024-03-02T00:27:47;6.60;99.90
47779;DHT22;33538;48.432;11.350;2024-03-02T00:30:43;6.60;99.90
47779;DHT22;33538;48.432;11.350;2024-03-02T00:33:13;6.60;99.90
47779;DHT22;33538;48.432;11.350;2024-03-02T00:35:44;6.60;99.90
47779;DHT22;33538;48.432;11.350;2024-03-02T00:38:11;6.60;99.90
47779;DHT22;33538;48.432;11.350;2024-03-02T00:40:39;6.60;99.90
47779;DHT22;33538;48.432;11.350;2024-03-02T00:43:06;6.60;99.90
47779;DHT22;33538;48.432;11.350;2024-03-02T00:45:34;6.60;99.90
47779;DHT22;33538;48.432;11.350;2024-03-02T00:48:01;6.60;99.90
47779;DHT22;33538;48.432;11.350;2024-03-02T00:50:28;6.60;99.90
47779;DHT22;33538;48.432;11.350;2024-03-02T00:52:58;6.60;99.90
47779;DHT22;33538;48.432;11.350;2024-03-02T00:55:25;6.60;99.90
47779;DHT22;33538;48.432;11.350;2024-03-02T00:57:52;6.60;99.90
47779;DHT22;33538;48.432;11.350;2024-03-02T01:00:19;6.60;99.90
47779;DHT22;33538;48.432;11.350;2024-03-02T01:02:46;6.60;99.90
47779;DHT22;33538;48.432;11.350;2024-03-02T01:05:13;6.60;99.90
47779;DHT22;33538;48.432;11.350;2024-03-02T01:07:40;6.60;99.90
47779;DHT22;33538;48.432;11.350;2024-03-02T01:10:09;6.60;99.90
47779;DHT22;33538;48.432;11.350;2024-03-02T01:12:36;6.60;99.90
47779;DHT22;33538;48.432;11.350;2024-03-02T01:15:03;6.60;99.90
47779;DHT22;33538;48.432;11.350;2024-03-02T01:17:30;6.60;99.90
47779;DHT22;33538;48.432;11.350;2024-03-02T01:19:57;6.60;99.90
47779;DHT22;33538;48.432;11.350;2024-03-02T01:22:24;6.60;99.90
47779;DHT22;33538;48.432;11.350;2024-03-02T01:24:50;6.60;99.90
47779;DHT22;33538;48.432;11.350;2024-03-02T01:27:19;6.60;99.90
47779;DHT22;33538;48.432;11.350;2024-03-02T01:29:46;6.60;99.90
47779;DHT22;33538;48.432;11.350;2024-03-02T01:32:12;6.60;99.90
47779;DHT22;33538;48.432;11.350;2024-03-02T01:34:39;6.60;99.90
47779;DHT22;33538;48.432;11.350;2024-03-02T01:37:06;6.60;99.90
47779;DHT22;33538;48.432;11.350;2024-03-02T01:39:33;6.60;99.90
47779;DHT22;33538;48.432;11.350;2024-03-02T01:42:00;6.60;99.90
47779;DHT22;33538;48.432;11.350;2024-03-02T01:44:28;6.60;99.90
47779;DHT22;33538;48.432;11.350;2024-03-02T01:46:55;6.60;99.90
47779;DHT22;33538;48.432;11.350;2024-03-02T01:49:21;6.60;99.90
47779;DHT22;33538;48.432;11.350;2024-03-02T01:51:48;6.60;99.90
47779;DHT22;33538;48.432;11.350;2024-03-02T01:54:15;6.60;99.90
47779;DHT22;33538;48.432;11.350;2024-03-02T01:56:42;6.60;99.90
47779;DHT22;33538;48.432;11.350;2024-03-02T01:59:09;6.60;99.90
47779;DHT22;33538;48.432;11.350;2024-03-02T02:01:37;6.60;99.90
47779;DHT22;33538;48.432;11.350;2024-03-02T02:04:04;6.60;99.90
47779;DHT22;33538;48.432;11.350;2024-03-02T02:06:31;6.60;99.90
47779;DHT22;33538;48.432;11.350;2024-03-02T02:08:58;6.60;99.90
47779;DHT22;33538;48.432;11.350;2024-03-02T02:11:25;6.60;99.90
47779;DHT22;33538;48.432;11.350;2024-03-02T02:13:52;6.60;99.90
47779;DHT22;33538;48.432;11.350;2024-03-02T02:16:19;6.60;99.90
47779;DHT22;33538;48.432;11.350;2024-03-02T02:18:47;6.60;99.90
47779;DHT22;33538;48.432;11.350;2024-03-02T02:21:13;6.50;99.90
47779;DHT22;33538;48.432;11.350;2024-03-02T02:23:42;6.50;99.90
47779;DHT22;33538;48.432;11.350;2024-03-02T02:26:08;6.60;99.90
47779;DHT22;33538;48.432;11.350;2024-03-02T02:28:35;6.50;99.90
47779;DHT22;33538;48.432;11.350;2024-03-02T02:31:02;6.60;99.90
47779;DHT22;33538;48.432;11.350;2024-03-02T02:33:29;6.60;99.90
47779;DHT22;33538;48.432;11.350;2024-03-02T02:35:56;6.50;99.90
47779;DHT22;33538;48.432;11.350;2024-03-02T02:38:23;6.50;99.90
47779;DHT22;33538;48.432;11.350;2024-03-02T02:40:51;6.50;99.90
47779;DHT22;33538;48.432;11.350;2024-03-02T02:43:18;6.50;99.90
47779;DHT22;33538;48.432;11.350;2024-03-02T02:45:44;6.50;99.90
47779;DHT22;33538;48.432;11.350;2024-03-02T02:48:11;6.50;99.90
47779;DHT22;33538;48.432;11.350;2024-03-02T02:50:38;6.50;99.90
47779;DHT22;33538;48.432;11.350;2024-03-02T02:53:05;6.50;99.90
47779;DHT22;33538;48.432;11.350;2024-03-02T02:55:32;6.50;99.90
47779;DHT22;33538;48.432;11.350;2024-03-02T02:58:00;6.50;99.90
47779;DHT22;33538;48.432;11.350;2024-03-02T03:00:27;6.50;99.90
47779;DHT22;33538;48.432;11.350;2024-03-02T03:02:54;6.50;99.90
47779;DHT22;33538;48.432;11.350;2024-03-02T03:05:21;6.50;99.90
47779;DHT22;33538;48.432;11.350;2024-03-02T03:07:47;6.50;99.90
47779;DHT22;33538;48.432;11.350;2024-03-02T03:10:14;6.50;99.90
47779;DHT22;33538;48.432;11.350;2024-03-02T03:12:42;6.50;99.90
47779;DHT22;33538;48.432;11.350;2024-03-02T03:15:11;6.50;99.90
47779;DHT22;33538;48.432;11.350;2024-03-02T03:17:38;6.50;99.90
47779;DHT22;33538;48.432;11.350;2024-03-02T03:20:05;6.50;99.90
47779;DHT22;33538;48.432;11.350;2024-03-02T03:22:33;6.50;99.90
47779;DHT22;33538;48.432;11.350;2024-03-02T03:25:00;6.50;99.90
47779;DHT22;33538;48.432;11.350;2024-03-02T03:27:27;6.50;99.90
47779;DHT22;33538;48.432;11.350;2024-03-02T03:29:54;6.50;99.90
47779;DHT22;33538;48.432;11.350;2024-03-02T03:32:22;6.50;99.90
47779;DHT22;33538;48.432;11.350;2024-03-02T03:34:49;6.50;99.90
47779;DHT22;33538;48.432;11.350;2024-03-02T03:37:16;6.50;99.90
47779;DHT22;33538;48.432;11.350;2024-03-02T03:39:43;6.50;99.90
47779;DHT22;33538;48.432;11.350;2024-03-02T03:42:10;6.50;99.90
47779;DHT22;33538;48.432;11.350;2024-03-02T03:44:37;6.50;99.90
47779;DHT22;33538;48.432;11.350;2024-03-02T03:47:04;6.50;99.90
47779;DHT22;33538;48.432;11.350;2024-03-02T03:49:32;6.50;99.90
47779;DHT22;33538;48.432;11.350;2024-03-02T03:51:59;6.50;99.90
47779;DHT22;33538;48.432;11.350;2024-03-02T03:54:26;6.50;99.90
47779;DHT22;33538;48.432;11.350;2024-03-02T03:56:52;6.50;99.90
47779;DHT22;33538;48.432;11.350;2024-03-02T03:59:19;6.50;99.90
47779;DHT22;33538;48.432;11.350;2024-03-02T04:01:46;6.50;99.90
47779;DHT22;33538;48.432;11.350;2024-03-02T04:04:13;6.50;99.90
47779;DHT22;33538;48.432;11.350;2024-03-02T04:06:41;6.50;99.90
47779;DHT22;33538;48.432;11.350;2024-03-02T04:09:08;6.50;99.90
47779;DHT22;33538;48.432;11.350;2024-03-02T04:11:34;6.50;99.90
47779;DHT22;33538;48.432;11.350;2024-03-02T04:14:01;6.50;99.90
47779;DHT22;33538;48.432;11.350;2024-03-02T04:16:28;6.50;99.90
47779;DHT22;33538;48.432;11.350;2024-03-02T04:18:55;6.40;99.90
47779;DHT22;33538;48.432;11.350;2024-03-02T04:21:22;6.40;99.90
47779;DHT22;33538;48.432;11.350;2024-03-02T04:23:50;6.40;99.90
47779;DHT22;33538;48.432;11.350;2024-03-02T04:26:17;6.50;99.90
47779;DHT22;33538;48.432;11.350;2024-03-02T04:28:43;6.50;99.90
47779;DHT22;33538;48.432;11.350;2024-03-02T04:31:10;6.50;99.90
47779;DHT22;33538;48.432;11.350;2024-03-02T04:33:37;6.50;99.90
47779;DHT22;33538;48.432;11.350;2024-03-02T04:36:04;6.50;99.90
47779;DHT22;33538;48.432;11.350;2024-03-02T04:38:31;6.50;99.90
47779;DHT22;33538;48.432;11.350;2024-03-02T04:40:59;6.50;99.90
47779;DHT22;33538;48.432;11.350;2024-03-02T04:43:26;6.50;99.90
47779;DHT22;33538;48.432;11.350;2024-03-02T04:45:53;6.50;99.90
47779;DHT22;33538;48.432;11.350;2024-03-02T04:48:19;6.50;99.90
47779;DHT22;33538;48.432;11.350;2024-03-02T04:50:46;6.40;99.90
47779;DHT22;33538;48.432;11.350;2024-03-02T04:53:13;6.50;99.90
47779;DHT22;33538;48.432;11.350;2024-03-02T04:55:40;6.50;99.90
47779;DHT22;33538;48.432;11.350;2024-03-02T04:58:08;6.40;99.90
47779;DHT22;33538;48.432;11.350;2024-03-02T05:00:35;6.40;99.90
47779;DHT22;33538;48.432;11.350;2024-03-02T05:03:02;6.50;99.90
47779;DHT22;33538;48.432;11.350;2024-03-02T05:05:29;6.40;99.90
47779;DHT22;33538;48.432;11.350;2024-03-02T05:07:56;6.40;99.90
47779;DHT22;33538;48.432;11.350;2024-03-02T05:10:23;6.40;99.90
47779;DHT22;33538;48.432;11.350;2024-03-02T05:12:50;6.40;99.90
47779;DHT22;33538;48.432;11.350;2024-03-02T05:15:18;6.40;99.90
47779;DHT22;33538;48.432;11.350;2024-03-02T05:17:45;6.40;99.90
47779;DHT22;33538;48.432;11.350;2024-03-02T05:20:12;6.50;99.90
47779;DHT22;33538;48.432;11.350;2024-03-02T05:22:39;6.50;99.90
47779;DHT22;33538;48.432;11.350;2024-03-02T05:25:07;6.50;99.90
47779;DHT22;33538;48.432;11.350;2024-03-02T05:27:34;6.40;99.90
47779;DHT22;33538;48.432;11.350;2024-03-02T05:30:01;6.40;99.90
47779;DHT22;33538;48.432;11.350;2024-03-02T05:32:30;6.40;99.90
47779;DHT22;33538;48.432;11.350;2024-03-02T05:34:57;6.40;99.90
47779;DHT22;33538;48.432;11.350;2024-03-02T05:37:23;6.40;99.90
47779;DHT22;33538;48.432;11.350;2024-03-02T05:39:50;6.40;99.90
47779;DHT22;33538;48.432;11.350;2024-03-02T05:42:17;6.40;99.90
47779;DHT22;33538;48.432;11.350;2024-03-02T05:44:44;6.40;99.90
47779;DHT22;33538;48.432;11.350;2024-03-02T05:47:11;6.40;99.90
47779;DHT22;33538;48.432;11.350;2024-03-02T05:49:39;6.40;99.90
47779;DHT22;33538;48.432;11.350;2024-03-02T05:52:06;6.40;99.90
47779;DHT22;33538;48.432;11.350;2024-03-02T05:54:33;6.30;99.90
47779;DHT22;33538;48.432;11.350;2024-03-02T05:56:59;6.40;99.90
47779;DHT22;33538;48.432;11.350;2024-03-02T05:59:26;6.40;99.90
47779;DHT22;33538;48.432;11.350;2024-03-02T06:01:53;6.40;99.90
47779;DHT22;33538;48.432;11.350;2024-03-02T06:04:20;6.40;99.90
47779;DHT22;33538;48.432;11.350;2024-03-02T06:06:48;6.40;99.90
47779;DHT22;33538;48.432;11.350;2024-03-02T06:09:15;6.40;99.90
47779;DHT22;33538;48.432;11.350;2024-03-02T06:11:42;6.40;99.90
47779;DHT22;33538;48.432;11.350;2024-03-02T06:14:09;6.40;99.90
47779;DHT22;33538;48.432;11.350;2024-03-02T06:16:36;6.40;99.90
47779;DHT22;33538;48.432;11.350;2024-03-02T06:19:03;6.30;99.90
47779;DHT22;33538;48.432;11.350;2024-03-02T06:21:30;6.30;99.90
47779;DHT22;33538;48.432;11.350;2024-03-02T06:23:58;6.40;99.90
47779;DHT22;33538;48.432;11.350;2024-03-02T06:26:25;6.30;99.90
47779;DHT22;33538;48.432;11.350;2024-03-02T06:28:52;6.30;99.90
47779;DHT22;33538;48.432;11.350;2024-03-02T06:31:19;6.30;99.90
47779;DHT22;33538;48.432;11.350;2024-03-02T06:33:46;6.30;99.90
47779;DHT22;33538;48.432;11.350;2024-03-02T06:36:13;6.30;99.90
47779;DHT22;33538;48.432;11.350;2024-03-02T06:38:39;6.30;99.90
47779;DHT22;33538;48.432;11.350;2024-03-02T06:41:10;6.30;99.90
47779;DHT22;33538;48.432;11.350;2024-03-02T06:43:37;6.30;99.90
47779;DHT22;33538;48.432;11.350;2024-03-02T06:46:04;6.30;99.90
47779;DHT22;33538;48.432;11.350;2024-03-02T06:48:31;6.30;99.90
47779;DHT22;33538;48.432;11.350;2024-03-02T06:50:57;6.30;99.90
47779;DHT22;33538;48.432;11.350;2024-03-02T06:53:24;6.30;99.90
47779;DHT22;33538;48.432;11.350;2024-03-02T06:55:51;6.40;99.90
47779;DHT22;33538;48.432;11.350;2024-03-02T06:58:19;6.40;99.90
47779;DHT22;33538;48.432;11.350;2024-03-02T07:00:46;6.40;99.90
47779;DHT22;33538;48.432;11.350;2024-03-02T07:03:13;6.40;99.90
47779;DHT22;33538;48.432;11.350;2024-03-02T07:05:40;6.40;99.90
47779;DHT22;33538;48.432;11.350;2024-03-02T07:08:07;6.40;99.90
47779;DHT22;33538;48.432;11.350;2024-03-02T07:10:33;6.40;99.90
47779;DHT22;33538;48.432;11.350;2024-03-02T07:13:00;6.40;99.90
47779;DHT22;33538;48.432;11.350;2024-03-02T07:15:28;6.40;99.90
47779;DHT22;33538;48.432;11.350;2024-03-02T07:17:56;6.40;99.90
47779;DHT22;33538;48.432;11.350;2024-03-02T07:20:22;6.40;99.90
47779;DHT22;33538;48.432;11.350;2024-03-02T07:22:49;6.40;99.90
47779;DHT22;33538;48.432;11.350;2024-03-02T07:25:16;6.40;99.90
47779;DHT22;33538;48.432;11.350;2024-03-02T07:27:46;6.40;99.90
47779;DHT22;33538;48.432;11.350;2024-03-02T07:30:14;6.40;99.90
47779;DHT22;33538;48.432;11.350;2024-03-02T07:32:42;6.40;99.90
47779;DHT22;33538;48.432;11.350;2024-03-02T07:35:09;6.40;99.90
47779;DHT22;33538;48.432;11.350;2024-03-02T07:37:36;6.40;99.90
47779;DHT22;33538;48.432;11.350;2024-03-02T07:40:03;6.40;99.90
47779;DHT22;33538;48.432;11.350;2024-03-02T07:42:30;6.50;99.90
47779;DHT22;33538;48.432;11.350;2024-03-02T07:44:57;6.50;99.90
47779;DHT22;33538;48.432;11.350;2024-03-02T07:47:24;6.50;99.90
47779;DHT22;33538;48.432;11.350;2024-03-02T07:49:52;6.50;99.90
47779;DHT22;33538;48.432;11.350;2024-03-02T07:52:19;6.60;99.90
47779;DHT22;33538;48.432;11.350;2024-03-02T07:54:46;6.60;99.90
47779;DHT22;33538;48.432;11.350;2024-03-02T07:57:13;6.60;99.90
47779;DHT22;33538;48.432;11.350;2024-03-02T07:59:39;6.60;99.90
47779;DHT22;33538;48.432;11.350;2024-03-02T08:02:07;6.70;99.90
47779;DHT22;33538;48.432;11.350;2024-03-02T08:04:33;6.70;99.90
47779;DHT22;33538;48.432;11.350;2024-03-02T08:07:02;6.70;99.90
47779;DHT22;33538;48.432;11.350;2024-03-02T08:09:28;6.70;99.90
47779;DHT22;33538;48.432;11.350;2024-03-02T08:11:55;6.70;99.90
47779;DHT22;33538;48.432;11.350;2024-03-02T08:14:22;6.70;99.90
47779;DHT22;33538;48.432;11.350;2024-03-02T08:16:49;6.70;99.90
47779;DHT22;33538;48.432;11.350;2024-03-02T08:19:16;6.80;99.90
47779;DHT22;33538;48.432;11.350;2024-03-02T08:21:43;6.80;99.90
47779;DHT22;33538;48.432;11.350;2024-03-02T08:24:11;6.80;99.90
47779;DHT22;33538;48.432;11.350;2024-03-02T08:26:38;6.80;99.90
47779;DHT22;33538;48.432;11.350;2024-03-02T08:29:05;6.80;99.90
47779;DHT22;33538;48.432;11.350;2024-03-02T08:31:32;6.80;99.90
47779;DHT22;33538;48.432;11.350;2024-03-02T08:33:59;6.90;99.90
47779;DHT22;33538;48.432;11.350;2024-03-02T08:36:26;6.80;99.90
47779;DHT22;33538;48.432;11.350;2024-03-02T08:38:53;6.90;99.90
47779;DHT22;33538;48.432;11.350;2024-03-02T08:41:21;6.90;99.90
47779;DHT22;33538;48.432;11.350;2024-03-02T08:43:48;6.90;99.90
47779;DHT22;33538;48.432;11.350;2024-03-02T08:46:14;6.90;99.90
47779;DHT22;33538;48.432;11.350;2024-03-02T08:48:41;6.90;99.90
47779;DHT22;33538;48.432;11.350;2024-03-02T08:51:08;7.00;99.90
47779;DHT22;33538;48.432;11.350;2024-03-02T08:53:35;7.00;99.90
47779;DHT22;33538;48.432;11.350;2024-03-02T08:56:02;7.00;99.90
47779;DHT22;33538;48.432;11.350;2024-03-02T08:58:30;7.00;99.90
47779;DHT22;33538;48.432;11.350;2024-03-02T09:00:57;7.10;99.90
47779;DHT22;33538;48.432;11.350;2024-03-02T09:03:24;7.10;99.90
47779;DHT22;33538;48.432;11.350;2024-03-02T09:05:51;7.10;99.90
47779;DHT22;33538;48.432;11.350;2024-03-02T09:08:18;7.10;99.90
47779;DHT22;33538;48.432;11.350;2024-03-02T09:10:45;7.10;99.90
47779;DHT22;33538;48.432;11.350;2024-03-02T09:13:12;7.10;99.90
47779;DHT22;33538;48.432;11.350;2024-03-02T09:15:40;7.10;99.90
47779;DHT22;33538;48.432;11.350;2024-03-02T09:18:07;7.20;99.90
47779;DHT22;33538;48.432;11.350;2024-03-02T09:20:34;7.20;99.90
47779;DHT22;33538;48.432;11.350;2024-03-02T09:23:01;7.20;99.90
47779;DHT22;33538;48.432;11.350;2024-03-02T09:25:27;7.20;99.90
47779;DHT22;33538;48.432;11.350;2024-03-02T09:27:54;7.20;99.90
47779;DHT22;33538;48.432;11.350;2024-03-02T09:30:21;7.20;99.90
47779;DHT22;33538;48.432;11.350;2024-03-02T09:32:49;7.20;99.90
47779;DHT22;33538;48.432;11.350;2024-03-02T09:35:16;7.30;99.90
47779;DHT22;33538;48.432;11.350;2024-03-02T09:37:43;7.20;99.90
47779;DHT22;33538;48.432;11.350;2024-03-02T09:40:11;7.30;99.90
47779;DHT22;33538;48.432;11.350;2024-03-02T09:42:37;7.30;99.90
47779;DHT22;33538;48.432;11.350;2024-03-02T09:45:06;7.30;99.90
47779;DHT22;33538;48.432;11.350;2024-03-02T09:47:33;7.30;99.90
47779;DHT22;33538;48.432;11.350;2024-03-02T09:50:01;7.30;99.90
47779;DHT22;33538;48.432;11.350;2024-03-02T09:52:28;7.40;99.90
47779;DHT22;33538;48.432;11.350;2024-03-02T09:54:56;7.40;99.90
47779;DHT22;33538;48.432;11.350;2024-03-02T09:57:26;7.40;99.90
47779;DHT22;33538;48.432;11.350;2024-03-02T09:59:53;7.40;99.90
47779;DHT22;33538;48.432;11.350;2024-03-02T10:02:20;7.40;99.90
47779;DHT22;33538;48.432;11.350;2024-03-02T10:04:49;7.50;99.90
47779;DHT22;33538;48.432;11.350;2024-03-02T10:07:19;7.50;99.90
47779;DHT22;33538;48.432;11.350;2024-03-02T10:09:48;7.50;99.90
47779;DHT22;33538;48.432;11.350;2024-03-02T10:12:16;7.50;99.90
47779;DHT22;33538;48.432;11.350;2024-03-02T10:14:44;7.50;99.90
47779;DHT22;33538;48.432;11.350;2024-03-02T10:17:12;7.50;99.90
47779;DHT22;33538;48.432;11.350;2024-03-02T10:19:40;7.50;99.90
47779;DHT22;33538;48.432;11.350;2024-03-02T10:22:09;7.60;99.90
47779;DHT22;33538;48.432;11.350;2024-03-02T10:24:40;7.60;99.90
47779;DHT22;33538;48.432;11.350;2024-03-02T10:27:09;7.60;99.90
47779;DHT22;33538;48.432;11.350;2024-03-02T10:29:37;7.60;99.90
47779;DHT22;33538;48.432;11.350;2024-03-02T10:32:09;7.60;99.90
47779;DHT22;33538;48.432;11.350;2024-03-02T10:34:39;7.60;99.90
47779;DHT22;33538;48.432;11.350;2024-03-02T10:37:07;7.70;99.90
47779;DHT22;33538;48.432;11.350;2024-03-02T10:39:35;7.70;99.90
47779;DHT22;33538;48.432;11.350;2024-03-02T10:42:05;7.70;99.90
47779;DHT22;33538;48.432;11.350;2024-03-02T10:44:33;7.70;99.90
47779;DHT22;33538;48.432;11.350;2024-03-02T10:47:02;7.70;99.90
47779;DHT22;33538;48.432;11.350;2024-03-02T10:49:30;7.80;99.90
47779;DHT22;33538;48.432;11.350;2024-03-02T10:51:58;7.80;99.90
47779;DHT22;33538;48.432;11.350;2024-03-02T10:54:25;7.80;99.90
47779;DHT22;33538;48.432;11.350;2024-03-02T10:56:53;7.80;99.90
47779;DHT22;33538;48.432;11.350;2024-03-02T10:59:27;7.90;99.90
47779;DHT22;33538;48.432;11.350;2024-03-02T11:01:57;7.90;99.90
47779;DHT22;33538;48.432;11.350;2024-03-02T11:04:29;7.90;99.90
47779;DHT22;33538;48.432;11.350;2024-03-02T11:07:00;7.90;99.90
47779;DHT22;33538;48.432;11.350;2024-03-02T11:09:29;8.00;99.90
47779;DHT22;33538;48.432;11.350;2024-03-02T11:12:02;8.00;99.90
47779;DHT22;33538;48.432;11.350;2024-03-02T11:14:32;8.00;99.90
47779;DHT22;33538;48.432;11.350;2024-03-02T11:17:02;8.00;99.90
47779;DHT22;33538;48.432;11.350;2024-03-02T11:19:31;8.10;99.90
47779;DHT22;33538;48.432;11.350;2024-03-02T11:21:59;8.10;99.90
47779;DHT22;33538;48.432;11.350;2024-03-02T11:24:31;8.10;99.90
47779;DHT22;33538;48.432;11.350;2024-03-02T11:27:03;8.10;99.90
47779;DHT22;33538;48.432;11.350;2024-03-02T11:29:45;8.20;99.90
47779;DHT22;33538;48.432;11.350;2024-03-02T11:32:17;8.20;99.90
47779;DHT22;33538;48.432;11.350;2024-03-02T11:34:46;8.20;99.90
47779;DHT22;33538;48.432;11.350;2024-03-02T11:37:14;8.20;99.90
47779;DHT22;33538;48.432;11.350;2024-03-02T11:39:42;8.30;99.90
47779;DHT22;33538;48.432;11.350;2024-03-02T11:42:11;8.30;99.90
47779;DHT22;33538;48.432;11.350;2024-03-02T11:44:39;8.30;99.90
47779;DHT22;33538;48.432;11.350;2024-03-02T11:47:14;8.30;99.90
47779;DHT22;33538;48.432;11.350;2024-03-02T11:49:46;8.40;99.90
47779;DHT22;33538;48.432;11.350;2024-03-02T11:52:14;8.40;99.90
47779;DHT22;33538;48.432;11.350;2024-03-02T11:54:45;8.40;99.90
47779;DHT22;33538;48.432;11.350;2024-03-02T11:57:14;8.40;99.90
47779;DHT22;33538;48.432;11.350;2024-03-02T11:59:43;8.40;99.90
47779;DHT22;33538;48.432;11.350;2024-03-02T12:02:18;8.50;99.90
47779;DHT22;33538;48.432;11.350;2024-03-02T12:04:46;8.40;99.90
47779;DHT22;33538;48.432;11.350;2024-03-02T12:07:19;8.50;99.90
47779;DHT22;33538;48.432;11.350;2024-03-02T12:09:47;8.50;99.90
47779;DHT22;33538;48.432;11.350;2024-03-02T12:12:14;8.50;99.90
47779;DHT22;33538;48.432;11.350;2024-03-02T12:14:50;8.50;99.90
47779;DHT22;33538;48.432;11.350;2024-03-02T12:17:19;8.50;99.90
47779;DHT22;33538;48.432;11.350;2024-03-02T12:19:47;8.50;99.90
47779;DHT22;33538;48.432;11.350;2024-03-02T12:22:14;8.60;99.90
47779;DHT22;33538;48.432;11.350;2024-03-02T12:24:44;8.60;99.90
47779;DHT22;33538;48.432;11.350;2024-03-02T12:27:12;8.60;99.90
47779;DHT22;33538;48.432;11.350;2024-03-02T12:29:39;8.60;99.90
47779;DHT22;33538;48.432;11.350;2024-03-02T12:32:07;8.60;99.90
47779;DHT22;33538;48.432;11.350;2024-03-02T12:34:35;8.60;99.90
47779;DHT22;33538;48.432;11.350;2024-03-02T12:37:02;8.60;99.90
47779;DHT22;33538;48.432;11.350;2024-03-02T12:39:29;8.60;99.90
47779;DHT22;33538;48.432;11.350;2024-03-02T12:41:56;8.70;99.90
47779;DHT22;33538;48.432;11.350;2024-03-02T12:44:23;8.60;99.90
47779;DHT22;33538;48.432;11.350;2024-03-02T12:46:50;8.60;99.90
47779;DHT22;33538;48.432;11.350;2024-03-02T12:49:22;8.60;99.90
47779;DHT22;33538;48.432;11.350;2024-03-02T12:51:50;8.70;99.90
47779;DHT22;33538;48.432;11.350;2024-03-02T12:54:17;8.70;99.90
47779;DHT22;33538;48.432;11.350;2024-03-02T12:56:44;8.70;99.90
47779;DHT22;33538;48.432;11.350;2024-03-02T12:59:17;8.70;99.90
47779;DHT22;33538;48.432;11.350;2024-03-02T13:01:50;8.70;99.90
47779;DHT22;33538;48.432;11.350;2024-03-02T13:04:21;8.70;99.90
47779;DHT22;33538;48.432;11.350;2024-03-02T13:06:48;8.80;99.90
47779;DHT22;33538;48.432;11.350;2024-03-02T13:09:16;8.80;99.90
47779;DHT22;33538;48.432;11.350;2024-03-02T13:11:43;8.70;99.90
47779;DHT22;33538;48.432;11.350;2024-03-02T13:14:10;8.80;99.90
47779;DHT22;33538;48.432;11.350;2024-03-02T13:16:38;8.80;99.90
47779;DHT22;33538;48.432;11.350;2024-03-02T13:19:07;8.80;99.90
47779;DHT22;33538;48.432;11.350;2024-03-02T13:21:34;8.80;99.90
47779;DHT22;33538;48.432;11.350;2024-03-02T13:24:01;8.80;99.90
47779;DHT22;33538;48.432;11.350;2024-03-02T13:26:29;8.80;99.90
47779;DHT22;33538;48.432;11.350;2024-03-02T13:28:56;8.80;99.90
47779;DHT22;33538;48.432;11.350;2024-03-02T13:31:23;8.90;99.90
47779;DHT22;33538;48.432;11.350;2024-03-02T13:33:49;8.90;99.90
47779;DHT22;33538;48.432;11.350;2024-03-02T13:36:16;8.90;99.90
47779;DHT22;33538;48.432;11.350;2024-03-02T13:38:43;8.90;99.90
47779;DHT22;33538;48.432;11.350;2024-03-02T13:41:10;8.90;99.90
47779;DHT22;33538;48.432;11.350;2024-03-02T13:43:38;8.90;99.90
47779;DHT22;33538;48.432;11.350;2024-03-02T13:46:05;8.90;99.90
47779;DHT22;33538;48.432;11.350;2024-03-02T13:48:32;8.90;99.90
47779;DHT22;33538;48.432;11.350;2024-03-02T13:50:59;8.90;99.90
47779;DHT22;33538;48.432;11.350;2024-03-02T13:53:26;8.90;99.90
47779;DHT22;33538;48.432;11.350;2024-03-02T13:55:52;8.90;99.90
47779;DHT22;33538;48.432;11.350;2024-03-02T13:58:19;9.00;99.90
47779;DHT22;33538;48.432;11.350;2024-03-02T14:00:47;9.00;99.90
47779;DHT22;33538;48.432;11.350;2024-03-02T14:03:14;9.00;99.90
47779;DHT22;33538;48.432;11.350;2024-03-02T14:05:41;9.00;99.90
47779;DHT22;33538;48.432;11.350;2024-03-02T14:08:09;9.00;99.90
47779;DHT22;33538;48.432;11.350;2024-03-02T14:10:36;9.00;99.90
47779;DHT22;33538;48.432;11.350;2024-03-02T14:13:03;9.00;99.90
47779;DHT22;33538;48.432;11.350;2024-03-02T14:15:30;9.00;99.90
47779;DHT22;33538;48.432;11.350;2024-03-02T14:17:58;9.00;99.90
47779;DHT22;33538;48.432;11.350;2024-03-02T14:20:26;9.00;99.90
47779;DHT22;33538;48.432;11.350;2024-03-02T14:22:53;9.00;99.90
47779;DHT22;33538;48.432;11.350;2024-03-02T14:25:20;9.00;99.90
47779;DHT22;33538;48.432;11.350;2024-03-02T14:27:47;9.00;99.90
47779;DHT22;33538;48.432;11.350;2024-03-02T14:30:34;9.00;99.90
47779;DHT22;33538;48.432;11.350;2024-03-02T14:33:02;9.00;99.90
47779;DHT22;33538;48.432;11.350;2024-03-02T14:35:29;9.10;99.90
47779;DHT22;33538;48.432;11.350;2024-03-02T14:37:56;9.00;99.90
47779;DHT22;33538;48.432;11.350;2024-03-02T14:40:23;9.00;99.90
47779;DHT22;33538;48.432;11.350;2024-03-02T14:42:50;9.10;99.90
47779;DHT22;33538;48.432;11.350;2024-03-02T14:45:17;9.00;99.90
47779;DHT22;33538;48.432;11.350;2024-03-02T14:47:44;9.10;99.90
47779;DHT22;33538;48.432;11.350;2024-03-02T14:50:12;9.10;99.90
47779;DHT22;33538;48.432;11.350;2024-03-02T14:52:39;9.10;99.90
47779;DHT22;33538;48.432;11.350;2024-03-02T14:55:08;9.10;99.90
47779;DHT22;33538;48.432;11.350;2024-03-02T14:57:35;9.10;99.90
47779;DHT22;33538;48.432;11.350;2024-03-02T15:00:03;9.10;99.90
47779;DHT22;33538;48.432;11.350;2024-03-02T15:02:30;9.10;99.90
47779;DHT22;33538;48.432;11.350;2024-03-02T15:04:56;9.10;99.90
47779;DHT22;33538;48.432;11.350;2024-03-02T15:07:25;9.20;99.90
47779;DHT22;33538;48.432;11.350;2024-03-02T15:09:51;9.10;99.90
47779;DHT22;33538;48.432;11.350;2024-03-02T15:12:18;9.10;99.90
47779;DHT22;33538;48.432;11.350;2024-03-02T15:14:45;9.20;99.90
47779;DHT22;33538;48.432;11.350;2024-03-02T15:17:13;9.10;99.90
47779;DHT22;33538;48.432;11.350;2024-03-02T15:19:40;9.20;99.90
47779;DHT22;33538;48.432;11.350;2024-03-02T15:22:06;9.20;99.90
47779;DHT22;33538;48.432;11.350;2024-03-02T15:24:35;9.20;99.90
47779;DHT22;33538;48.432;11.350;2024-03-02T15:27:02;9.20;99.90
47779;DHT22;33538;48.432;11.350;2024-03-02T15:29:28;9.20;99.90
47779;DHT22;33538;48.432;11.350;2024-03-02T15:31:55;9.20;99.90